Historique des mesures à Cassis (13260), France
Quotidien Résumé Octobre 16, 2017 Unités:  Métrique    US   Métrique/US
« Précédent (Jour)
Suivant (Jour) »
Quotidien Hebdomadaire Mensuel Annuel Période au choix
  Maximum: Minimum: Moyenne:
Température: TemperatureC °C 14.8 °C 16.9 °C
Point de rosée: DewpointC °C 12.3 °C 13.6 °C
Humidité: Humidity % 73 % 78 %
Vitesse du vent: 0 km/h 0 km/h 2.9 km/h
Rafales: 0 km/h - -
Vent:- - South
Pression: PressurehPa hPa 1023.2 hPa -
Précipitations: 0.0 mm    
Historical Graphs
 
 
Mesures pour : Octobre 16, 2017
Heure Temperature Point de rosée Pression Vent Vitesse du vent Rafales Humidité Pluie (par heure) Conditions
TemperatureC °C DewpointC °C PressurehPa hPa Calm     Humidity % HourlyPrecipMM mm SoftwareType W/m2
00:11 16.5 °C 14.0 °C 1024.6 hPa NNE 2.9 km/h 2.9 km/h 85 % 0.0 mm open2300-1.11 W/m2
01:11 16.2 °C 13.7 °C 1024.6 hPa NNW 4.2 km/h 4.2 km/h 85 % 0.0 mm open2300-1.11 W/m2
02:11 15.9 °C 13.6 °C 1024.3 hPa NNW 6.9 km/h 6.9 km/h 86 % 0.0 mm open2300-1.11 W/m2
03:11 15.7 °C 13.2 °C 1024.3 hPa NNE 2.3 km/h 4.7 km/h 85 % 0.0 mm open2300-1.11 W/m2
04:11 15.8 °C 13.1 °C 1023.6 hPa NNE 7.6 km/h 13.2 km/h 84 % 0.0 mm open2300-1.11 W/m2
05:11 15.6 °C 12.9 °C 1023.2 hPa Calm     84 % 0.0 mm open2300-1.11 W/m2
06:11 15.4 °C 12.7 °C 1023.6 hPa NNW 5.6 km/h 7.6 km/h 84 % 0.0 mm open2300-1.11 W/m2
07:11 15.0 °C 12.5 °C 1023.9 hPa Calm     85 % 0.0 mm open2300-1.11 W/m2
08:11 14.8 °C 12.3 °C 1024.6 hPa Calm     85 % 0.0 mm open2300-1.11 W/m2
09:11 16.1 °C 13.6 °C 1024.9 hPa Calm     85 % 0.0 mm open2300-1.11 W/m2
10:11 17.3 °C 14.6 °C 1025.6 hPa Calm     84 % 0.0 mm open2300-1.11 W/m2
11:11 18.7 °C 15.7 °C 1025.3 hPa SSE 5.1 km/h 5.6 km/h 83 % 0.0 mm open2300-1.11 W/m2
12:11 20.3 °C 15.9 °C 1025.6 hPa SE 7.6 km/h 7.6 km/h 76 % 0.0 mm open2300-1.11 W/m2
13:11 21.1 °C 16.2 °C 1024.9 hPa Calm   12.2 km/h 74 % 0.0 mm open2300-1.11 W/m2
14:11 21.1 °C 16.0 °C 1024.6 hPa SE 2.9 km/h 14 km/h 73 % 0.0 mm open2300-1.11 W/m2
15:11 21.2 °C 16.1 °C 1023.9 hPa SE 5.1 km/h 9.8 km/h 73 % 0.0 mm open2300-1.11 W/m2
16:11 20.9 °C 15.8 °C 1023.6 hPa SE 3.4 km/h 9.3 km/h 73 % 0.0 mm open2300-1.11 W/m2
17:11 20.6 °C 15.8 °C 1023.2 hPa SE 8 km/h 8 km/h 74 % 0.0 mm open2300-1.11 W/m2
18:11 19.9 °C 15.3 °C 1023.2 hPa SE 9.3 km/h 9.3 km/h 75 % 0.0 mm open2300-1.11 W/m2
19:11 18.8 °C 14.9 °C 1023.2 hPa Calm     78 % 0.0 mm open2300-1.11 W/m2
20:11 17.2 °C 13.7 °C 1023.2 hPa Calm     80 % 0.0 mm open2300-1.11 W/m2
21:11 16.2 °C 13.2 °C 1023.2 hPa Calm     82 % 0.0 mm open2300-1.11 W/m2
22:11 16.1 °C 13.4 °C 1023.2 hPa Calm     84 % 0.0 mm open2300-1.11 W/m2
23:11 15.6 °C 12.9 °C 1023.6 hPa NNW 2.3 km/h 4.7 km/h 84 % 0.0 mm open2300-1.11 W/m2
Observations météo à CASSIS
WU-History script by Weather Underground - 1 mb